createdAt,value
2018-11-10T00:02:09.738Z,96.70
2018-11-10T00:04:38.132Z,96.70
2018-11-10T00:07:06.564Z,96.60
2018-11-10T00:12:03.074Z,96.30
2018-11-10T00:14:31.454Z,96.20
2018-11-10T00:16:59.876Z,96.20
2018-11-10T00:19:28.300Z,96.50
2018-11-10T00:21:56.680Z,96.40
2018-11-10T00:26:53.242Z,96.30
2018-11-10T00:29:21.673Z,96.30
2018-11-10T00:31:50.092Z,96.00
2018-11-10T00:34:18.491Z,96.00
2018-11-10T00:36:47.008Z,96.10
2018-11-10T00:39:15.616Z,96.40
2018-11-10T00:41:44.035Z,96.40
2018-11-10T00:44:12.471Z,96.50
2018-11-10T00:46:40.876Z,96.60
2018-11-10T00:49:09.285Z,96.40
2018-11-10T00:51:37.691Z,96.40
2018-11-10T00:54:06.136Z,96.30
2018-11-10T00:56:34.546Z,96.20
2018-11-10T00:59:03.001Z,96.30
2018-11-10T01:01:31.475Z,96.50
2018-11-10T01:06:27.988Z,96.60
2018-11-10T01:08:56.397Z,96.80
2018-11-10T01:11:24.812Z,97.10
2018-11-10T01:13:53.203Z,97.10
2018-11-10T01:18:49.702Z,97.10
2018-11-10T01:21:18.119Z,97.10
2018-11-10T01:23:46.512Z,97.00
2018-11-10T01:26:14.887Z,97.00
2018-11-10T01:28:43.294Z,97.10
2018-11-10T01:31:11.706Z,96.90
2018-11-10T01:33:40.155Z,96.90
2018-11-10T01:36:08.561Z,97.10
2018-11-10T01:41:05.233Z,97.20
2018-11-10T01:46:01.756Z,97.30
2018-11-10T01:48:30.195Z,97.30
2018-11-10T01:55:54.806Z,97.30
2018-11-10T01:58:23.219Z,97.20
2018-11-10T02:00:51.633Z,96.70
2018-11-10T02:03:20.080Z,96.70
2018-11-10T02:05:48.528Z,96.80
2018-11-10T02:08:16.940Z,96.70
2018-11-10T02:10:45.360Z,96.60
2018-11-10T02:13:13.783Z,96.70
2018-11-10T02:15:42.211Z,96.90
2018-11-10T02:18:10.604Z,97.20
2018-11-10T02:20:39.083Z,97.20
2018-11-10T02:23:07.520Z,97.30
2018-11-10T02:28:04.144Z,97.50
2018-11-10T02:30:32.586Z,97.50
2018-11-10T02:33:00.970Z,97.50
2018-11-10T02:35:29.408Z,97.50
2018-11-10T02:37:57.822Z,97.50
2018-11-10T02:40:26.272Z,97.60
2018-11-10T02:42:54.668Z,97.50
2018-11-10T02:45:23.096Z,97.60
2018-11-10T02:47:51.476Z,97.60
2018-11-10T02:50:19.886Z,97.60
2018-11-10T02:52:48.304Z,97.70
2018-11-10T02:55:16.744Z,97.70
2018-11-10T02:57:45.128Z,97.80
2018-11-10T03:00:14.496Z,97.60
2018-11-10T03:02:42.882Z,97.70
2018-11-10T03:05:11.744Z,97.40
2018-11-10T03:07:40.222Z,97.10
2018-11-10T03:12:37.871Z,96.40
2018-11-10T03:15:06.905Z,96.20
2018-11-10T03:17:35.347Z,96.60
2018-11-10T03:20:03.889Z,96.50
2018-11-10T03:22:32.293Z,96.60
2018-11-10T03:25:00.688Z,96.50
2018-11-10T03:27:29.127Z,96.80
2018-11-10T03:32:25.681Z,97.00
2018-11-10T03:37:22.263Z,97.10
2018-11-10T03:39:50.653Z,97.00
2018-11-10T03:42:19.047Z,97.30
2018-11-10T03:44:47.479Z,97.00
2018-11-10T03:47:15.871Z,96.60
2018-11-10T03:49:44.283Z,96.60
2018-11-10T03:52:12.681Z,96.70
2018-11-10T03:54:41.116Z,96.90
2018-11-10T03:57:09.512Z,97.10
2018-11-10T03:59:37.971Z,97.20
2018-11-10T04:02:06.496Z,97.30
2018-11-10T04:04:34.899Z,97.40
2018-11-10T04:09:31.410Z,97.60
2018-11-10T04:11:59.866Z,97.60
2018-11-10T04:14:28.263Z,97.30
2018-11-10T04:16:56.659Z,97.40
2018-11-10T04:19:25.043Z,97.40
2018-11-10T04:21:53.455Z,97.20
2018-11-10T04:24:21.834Z,97.40
2018-11-10T04:26:50.260Z,97.10
2018-11-10T04:29:18.664Z,96.90
2018-11-10T04:31:47.095Z,96.50
2018-11-10T04:36:43.731Z,96.70
2018-11-10T04:39:12.144Z,96.80
2018-11-10T04:41:40.548Z,97.10
2018-11-10T04:44:08.931Z,97.00
2018-11-10T04:46:37.391Z,97.10
2018-11-10T04:49:06.021Z,96.70
2018-11-10T04:51:34.427Z,96.40
2018-11-10T04:54:02.845Z,96.40
2018-11-10T04:56:31.234Z,96.80
2018-11-10T04:58:59.647Z,96.50
2018-11-10T05:01:28.105Z,96.80
2018-11-10T05:03:56.478Z,96.60
2018-11-10T05:06:24.875Z,96.40
2018-11-10T05:08:53.256Z,96.30
2018-11-10T05:11:21.667Z,96.30
2018-11-10T05:13:50.079Z,96.50
2018-11-10T05:18:46.633Z,96.40
2018-11-10T05:23:43.148Z,96.50
2018-11-10T05:26:11.552Z,96.60
2018-11-10T05:28:39.924Z,96.90
2018-11-10T05:31:08.345Z,96.90
2018-11-10T05:33:36.772Z,97.10
2018-11-10T05:36:05.401Z,97.20
2018-11-10T05:38:33.772Z,97.10
2018-11-10T05:41:02.152Z,97.00
2018-11-10T05:45:58.683Z,97.10
2018-11-10T05:48:27.292Z,97.10
2018-11-10T05:50:55.691Z,97.20
2018-11-10T05:53:24.108Z,97.30
2018-11-10T05:58:20.655Z,97.30
2018-11-10T06:00:49.039Z,97.50
2018-11-10T06:05:45.555Z,97.20
2018-11-10T06:08:13.983Z,97.00
2018-11-10T06:13:10.521Z,97.50
2018-11-10T06:15:38.896Z,97.70
2018-11-10T06:18:07.319Z,97.70
2018-11-10T06:20:35.702Z,97.90
2018-11-10T06:23:04.112Z,97.70
2018-11-10T06:25:32.486Z,97.80
2018-11-10T06:32:57.138Z,97.60
2018-11-10T06:35:25.563Z,97.60
2018-11-10T06:37:53.971Z,97.60
2018-11-10T06:40:22.512Z,97.60
2018-11-10T06:42:50.927Z,97.70
2018-11-10T06:45:19.311Z,97.60
2018-11-10T06:47:47.715Z,97.40
2018-11-10T06:50:16.098Z,97.30
2018-11-10T06:52:44.487Z,97.40
2018-11-10T06:57:41.025Z,97.30
2018-11-10T07:02:38.503Z,97.60
2018-11-10T07:05:07.136Z,97.60
2018-11-10T07:07:35.540Z,97.70
2018-11-10T07:10:04.303Z,97.70
2018-11-10T07:12:32.731Z,97.40
2018-11-10T07:15:01.145Z,97.30
2018-11-10T07:17:29.579Z,97.00
2018-11-10T07:19:57.980Z,97.10
2018-11-10T07:22:26.388Z,97.10
2018-11-10T07:27:22.877Z,97.20
2018-11-10T07:29:51.302Z,97.40
2018-11-10T07:37:15.948Z,97.20
2018-11-10T07:42:12.480Z,97.30
2018-11-10T07:44:40.901Z,97.10
2018-11-10T07:47:09.285Z,97.10
2018-11-10T07:49:37.664Z,96.90
2018-11-10T07:52:06.659Z,96.80
2018-11-10T07:54:35.040Z,96.80
2018-11-10T07:57:04.456Z,96.70
2018-11-10T07:59:32.849Z,96.70
2018-11-10T08:02:01.232Z,96.60
2018-11-10T08:04:29.754Z,96.60
2018-11-10T08:06:58.088Z,96.80
2018-11-10T08:09:26.507Z,96.70
2018-11-10T08:11:54.974Z,96.70
2018-11-10T08:14:23.354Z,96.60
2018-11-10T08:16:51.779Z,96.80
2018-11-10T08:19:20.180Z,96.30
2018-11-10T08:21:48.593Z,95.90
2018-11-10T08:24:17.011Z,96.00
2018-11-10T08:26:45.392Z,96.00
2018-11-10T08:29:13.806Z,96.10
2018-11-10T08:31:42.199Z,95.70
2018-11-10T08:34:10.607Z,95.30
2018-11-10T08:39:08.819Z,94.80
2018-11-10T08:41:37.451Z,94.70
2018-11-10T08:46:34.092Z,93.90
2018-11-10T08:49:02.658Z,93.70
2018-11-10T08:51:31.072Z,94.00
2018-11-10T08:53:59.472Z,93.30
2018-11-10T08:56:27.892Z,93.50
2018-11-10T09:01:24.397Z,93.80
2018-11-10T09:03:52.785Z,93.90
2018-11-10T09:06:21.171Z,93.40
2018-11-10T09:08:49.567Z,93.80
2018-11-10T09:13:46.119Z,93.50
2018-11-10T09:18:42.651Z,93.20
2018-11-10T09:23:39.224Z,92.60
2018-11-10T09:26:07.613Z,92.00
2018-11-10T09:28:36.012Z,91.50
2018-11-10T09:31:04.483Z,91.30
2018-11-10T09:33:32.843Z,90.80
2018-11-10T09:40:57.448Z,91.30
2018-11-10T09:43:25.858Z,91.70
2018-11-10T09:45:54.256Z,91.70
2018-11-10T09:50:50.852Z,91.40
2018-11-10T09:53:19.239Z,91.30
2018-11-10T09:55:47.644Z,91.10
2018-11-10T10:00:44.128Z,91.50
2018-11-10T10:03:12.507Z,90.90
2018-11-10T10:05:40.965Z,91.40
2018-11-10T10:10:37.496Z,91.60
2018-11-10T10:13:05.931Z,90.60
2018-11-10T10:15:34.348Z,91.40
2018-11-10T10:18:02.734Z,89.80
2018-11-10T10:20:31.156Z,88.00
2018-11-10T10:25:27.663Z,85.40
2018-11-10T10:27:56.076Z,86.30
2018-11-10T10:35:22.162Z,86.10
2018-11-10T10:40:19.364Z,86.50
2018-11-10T10:42:48.168Z,87.10
2018-11-10T10:47:46.358Z,86.90
2018-11-10T10:50:16.987Z,85.30
2018-11-10T10:52:45.395Z,84.50
2018-11-10T10:55:15.090Z,85.30
2018-11-10T11:00:18.688Z,87.40
2018-11-10T11:02:52.639Z,87.60
2018-11-10T11:07:54.744Z,88.60
2018-11-10T11:12:51.462Z,88.60
2018-11-10T11:15:20.041Z,88.90
2018-11-10T11:20:16.462Z,88.60
2018-11-10T11:22:45.521Z,88.70
2018-11-10T11:25:14.384Z,87.80
2018-11-10T11:27:43.485Z,88.10
2018-11-10T11:30:11.966Z,88.40
2018-11-10T11:32:40.375Z,87.10
2018-11-10T11:40:08.207Z,87.40
2018-11-10T11:42:36.625Z,87.50
2018-11-10T11:45:06.000Z,87.40
2018-11-10T11:47:34.410Z,87.70
2018-11-10T11:50:02.869Z,88.00
2018-11-10T11:52:31.297Z,87.70
2018-11-10T11:54:59.659Z,87.70
2018-11-10T11:57:28.327Z,87.50
2018-11-10T11:59:56.729Z,87.50
2018-11-10T12:02:25.123Z,87.40
2018-11-10T12:04:53.531Z,87.40
2018-11-10T12:07:21.945Z,87.00
2018-11-10T12:09:50.346Z,86.60
2018-11-10T12:12:18.780Z,87.00
2018-11-10T12:14:47.303Z,87.00
2018-11-10T12:17:15.703Z,86.20
2018-11-10T12:19:44.083Z,86.60
2018-11-10T12:24:40.628Z,86.50
2018-11-10T12:29:37.140Z,86.70
2018-11-10T12:32:05.649Z,86.60
2018-11-10T12:34:34.064Z,85.60
2018-11-10T12:37:02.483Z,84.90
2018-11-10T12:39:30.905Z,84.30
2018-11-10T12:41:59.313Z,84.30
2018-11-10T12:44:27.700Z,84.40
2018-11-10T12:46:56.140Z,84.70
2018-11-10T12:51:52.656Z,84.60
2018-11-10T12:54:21.069Z,84.60
2018-11-10T12:56:49.481Z,84.40
2018-11-10T12:59:17.867Z,84.70
2018-11-10T13:01:46.276Z,84.80
2018-11-10T13:04:14.719Z,84.70
2018-11-10T13:06:43.102Z,84.90
2018-11-10T13:14:09.808Z,84.10
2018-11-10T13:16:38.317Z,84.40
2018-11-10T13:19:08.199Z,84.50
2018-11-10T13:21:36.691Z,84.00
2018-11-10T13:24:05.638Z,83.80
2018-11-10T13:26:34.073Z,83.70
2018-11-10T13:29:02.488Z,83.70
2018-11-10T13:33:59.004Z,83.40
2018-11-10T13:36:27.412Z,83.30
2018-11-10T13:38:55.786Z,83.40
2018-11-10T13:41:24.195Z,83.20
2018-11-10T13:43:52.596Z,83.30
2018-11-10T13:46:21.020Z,83.10
2018-11-10T13:51:17.960Z,83.20
2018-11-10T13:56:14.570Z,83.30
2018-11-10T13:58:42.961Z,83.10
2018-11-10T14:03:39.463Z,82.80
2018-11-10T14:06:07.901Z,82.70
2018-11-10T14:08:36.287Z,82.90
2018-11-10T14:11:04.731Z,82.90
2018-11-10T14:13:33.123Z,82.90
2018-11-10T14:18:29.715Z,83.00
2018-11-10T14:20:58.152Z,83.40
2018-11-10T14:23:26.559Z,83.50
2018-11-10T14:25:54.976Z,83.80
2018-11-10T14:28:23.391Z,84.10
2018-11-10T14:30:51.796Z,84.00
2018-11-10T14:33:20.311Z,84.10
2018-11-10T14:38:16.800Z,84.20
2018-11-10T14:40:45.208Z,84.40
2018-11-10T14:43:13.631Z,84.60
2018-11-10T14:45:42.033Z,84.70
2018-11-10T14:48:10.444Z,85.10
2018-11-10T14:50:38.857Z,85.10
2018-11-10T14:53:07.423Z,84.90
2018-11-10T14:55:35.703Z,85.20
2018-11-10T14:58:04.176Z,85.40
2018-11-10T15:00:32.564Z,85.70
2018-11-10T15:03:00.968Z,85.70
2018-11-10T15:05:29.372Z,86.30
2018-11-10T15:07:57.784Z,86.60
2018-11-10T15:10:26.344Z,87.00
2018-11-10T15:12:54.792Z,87.20
2018-11-10T15:15:23.205Z,87.60
2018-11-10T15:17:51.767Z,87.80
2018-11-10T15:20:20.497Z,87.80
2018-11-10T15:22:48.923Z,88.10
2018-11-10T15:25:18.856Z,88.00
2018-11-10T15:27:47.246Z,88.40
2018-11-10T15:30:16.928Z,88.70
2018-11-10T15:32:46.009Z,88.70
2018-11-10T15:37:44.986Z,89.20
2018-11-10T15:40:14.181Z,89.20
2018-11-10T15:42:42.681Z,89.20
2018-11-10T15:45:12.264Z,89.40
2018-11-10T15:47:43.179Z,89.60
2018-11-10T15:50:13.146Z,89.40
2018-11-10T15:57:40.940Z,89.80
2018-11-10T16:00:12.680Z,89.80
2018-11-10T16:02:41.466Z,89.70
2018-11-10T16:05:10.764Z,89.80
2018-11-10T16:07:39.428Z,89.70
2018-11-10T16:10:08.056Z,89.60
2018-11-10T16:12:36.791Z,89.90
2018-11-10T16:15:07.164Z,90.20
2018-11-10T16:20:03.884Z,90.10
2018-11-10T16:22:32.282Z,89.70
2018-11-10T16:25:00.710Z,89.50
2018-11-10T16:27:29.120Z,89.20
2018-11-10T16:29:57.672Z,89.40
2018-11-10T16:32:26.079Z,89.20
2018-11-10T16:34:54.482Z,89.00
2018-11-10T16:37:22.943Z,88.70
2018-11-10T16:39:51.308Z,88.80
2018-11-10T16:44:47.937Z,88.80
2018-11-10T16:47:16.351Z,89.00
2018-11-10T16:49:44.800Z,89.40
2018-11-10T16:52:13.187Z,89.90
2018-11-10T16:54:41.612Z,90.10
2018-11-10T16:57:10.005Z,90.20
2018-11-10T17:02:06.543Z,90.70
2018-11-10T17:04:34.972Z,90.90
2018-11-10T17:07:03.372Z,90.80
2018-11-10T17:09:31.787Z,91.30
2018-11-10T17:12:00.201Z,90.80
2018-11-10T17:19:25.035Z,90.40
2018-11-10T17:21:53.676Z,90.40
2018-11-10T17:24:21.956Z,90.90
2018-11-10T17:26:50.368Z,90.90
2018-11-10T17:29:18.816Z,90.80
2018-11-10T17:31:47.194Z,91.00
2018-11-10T17:36:43.711Z,91.40
2018-11-10T17:41:40.224Z,91.50
2018-11-10T17:44:08.649Z,91.40
2018-11-10T17:46:37.056Z,91.10
2018-11-10T17:49:05.443Z,90.90
2018-11-10T17:51:33.843Z,90.40
2018-11-10T17:54:02.254Z,90.50
2018-11-10T17:56:30.678Z,90.60
2018-11-10T17:58:59.050Z,90.30
2018-11-10T18:01:27.524Z,90.20
2018-11-10T18:03:55.984Z,90.10
2018-11-10T18:06:24.326Z,90.10
2018-11-10T18:08:52.687Z,91.30
2018-11-10T18:11:21.091Z,91.70
2018-11-10T18:13:49.491Z,92.20
2018-11-10T18:16:17.908Z,92.30
2018-11-10T18:18:46.354Z,92.50
2018-11-10T18:21:14.755Z,92.40
2018-11-10T18:23:43.160Z,92.60
2018-11-10T18:26:11.571Z,92.70
2018-11-10T18:28:39.984Z,92.70
2018-11-10T18:31:08.405Z,92.80
2018-11-10T18:33:36.835Z,92.70
2018-11-10T18:36:05.392Z,93.00
2018-11-10T18:38:33.796Z,93.20
2018-11-10T18:41:02.203Z,93.20
2018-11-10T18:43:30.635Z,93.20
2018-11-10T18:45:59.036Z,93.50
2018-11-10T18:48:27.449Z,93.40
2018-11-10T18:50:55.888Z,93.20
2018-11-10T18:53:24.281Z,92.90
2018-11-10T18:55:52.688Z,92.70
2018-11-10T18:58:21.160Z,92.50
2018-11-10T19:00:49.617Z,92.50
2018-11-10T19:03:18.053Z,92.50
2018-11-10T19:08:14.611Z,92.10
2018-11-10T19:10:43.028Z,92.10
2018-11-10T19:13:12.304Z,91.70
2018-11-10T19:15:40.736Z,91.50
2018-11-10T19:18:09.146Z,91.60
2018-11-10T19:20:37.635Z,91.60
2018-11-10T19:23:06.175Z,91.40
2018-11-10T19:25:34.459Z,91.40
2018-11-10T19:28:02.845Z,91.50
2018-11-10T19:30:31.244Z,91.70
2018-11-10T19:32:59.619Z,91.60
2018-11-10T19:35:28.040Z,92.00
2018-11-10T19:37:56.430Z,92.10
2018-11-10T19:40:24.849Z,92.20
2018-11-10T19:42:53.259Z,92.10
2018-11-10T19:45:21.659Z,92.30
2018-11-10T19:47:50.060Z,92.20
2018-11-10T19:50:18.525Z,92.30
2018-11-10T19:52:46.922Z,92.30
2018-11-10T19:55:16.459Z,92.40
2018-11-10T19:57:44.882Z,92.60
2018-11-10T20:02:43.662Z,92.80
2018-11-10T20:05:12.069Z,92.80
2018-11-10T20:07:40.651Z,93.00
2018-11-10T20:10:09.956Z,93.00
2018-11-10T20:12:38.403Z,92.90
2018-11-10T20:15:08.098Z,92.70
2018-11-10T20:17:36.541Z,92.90
2018-11-10T20:20:04.980Z,93.10
2018-11-10T20:22:33.411Z,93.20
2018-11-10T20:25:01.804Z,93.30
2018-11-10T20:27:30.210Z,93.70
2018-11-10T20:29:58.607Z,93.90
2018-11-10T20:34:55.107Z,94.30
2018-11-10T20:37:23.505Z,94.00
2018-11-10T20:39:51.923Z,94.30
2018-11-10T20:42:20.368Z,94.40
2018-11-10T20:44:48.832Z,94.30
2018-11-10T20:47:17.208Z,94.50
2018-11-10T20:49:45.619Z,94.20
2018-11-10T20:52:14.057Z,94.40
2018-11-10T20:54:42.448Z,94.50
2018-11-10T20:57:11.264Z,94.30
2018-11-10T20:59:39.677Z,94.50
2018-11-10T21:02:08.111Z,94.40
2018-11-10T21:04:36.504Z,94.80
2018-11-10T21:07:05.053Z,95.00
2018-11-10T21:12:01.664Z,95.30
2018-11-10T21:14:30.068Z,95.30
2018-11-10T21:16:58.484Z,95.30
2018-11-10T21:21:54.979Z,95.40
2018-11-10T21:26:51.527Z,96.20
2018-11-10T21:29:20.024Z,96.30
2018-11-10T21:31:48.387Z,96.30
2018-11-10T21:34:16.929Z,96.40
2018-11-10T21:36:45.243Z,96.40
2018-11-10T21:39:13.635Z,96.20
2018-11-10T21:41:42.092Z,96.40
2018-11-10T21:44:10.495Z,96.40
2018-11-10T21:46:38.931Z,96.50
2018-11-10T21:49:07.373Z,96.70
2018-11-10T21:51:35.800Z,96.70
2018-11-10T21:54:04.212Z,96.80
2018-11-10T21:56:32.637Z,96.80
2018-11-10T21:59:01.060Z,96.70
2018-11-10T22:01:29.477Z,96.70
2018-11-10T22:03:57.899Z,96.50
2018-11-10T22:06:26.331Z,96.40
2018-11-10T22:08:54.826Z,96.50
2018-11-10T22:11:23.196Z,96.60
2018-11-10T22:13:51.576Z,96.40
2018-11-10T22:16:19.996Z,96.40
2018-11-10T22:18:48.404Z,96.50
2018-11-10T22:21:16.808Z,96.40
2018-11-10T22:23:45.263Z,96.60
2018-11-10T22:26:13.701Z,96.70
2018-11-10T22:31:10.222Z,97.00
2018-11-10T22:33:38.675Z,96.90
2018-11-10T22:36:07.091Z,97.00
2018-11-10T22:38:35.497Z,96.90
2018-11-10T22:41:03.882Z,96.80
2018-11-10T22:43:32.285Z,97.00
2018-11-10T22:46:00.663Z,96.90
2018-11-10T22:48:29.081Z,96.90
2018-11-10T22:50:57.491Z,96.90
2018-11-10T22:53:25.904Z,97.00
2018-11-10T22:55:54.319Z,97.10
2018-11-10T22:58:22.803Z,97.20
2018-11-10T23:00:56.476Z,97.10
2018-11-10T23:03:24.943Z,97.10
2018-11-10T23:05:53.336Z,97.20
2018-11-10T23:08:21.829Z,97.20
2018-11-10T23:10:50.253Z,97.40
2018-11-10T23:13:18.704Z,97.30
2018-11-10T23:15:47.113Z,97.20
2018-11-10T23:20:43.680Z,97.20
2018-11-10T23:25:40.229Z,97.00
2018-11-10T23:28:08.699Z,97.10
2018-11-10T23:30:37.131Z,96.90
2018-11-10T23:33:05.771Z,96.90
2018-11-10T23:40:30.408Z,97.40
2018-11-10T23:42:58.837Z,97.40
2018-11-10T23:45:27.233Z,97.50
2018-11-10T23:47:55.667Z,97.50
2018-11-10T23:55:20.320Z,97.60
2018-11-10T23:57:48.735Z,97.80
